Time;durP1;ratioP1;P1;durP2;ratioP2;P2;SDS_P1;SDS_P2;PMS_P1;PMS_P2;Temp;Humidity;BMP_temperature;BMP_pressure;BME280_temperature;BME280_humidity;BME280_pressure;Samples;Min_cycle;Max_cycle;Signal;HPM_P1;HPM_P2
2023/08/30 00:00:20;;;;;;;18.73;16.87;;;15.40;99.90;;;;;;5051469;28;20683;-73
2023/08/30 00:02:46;;;;;;;21.63;17.87;;;15.50;99.90;;;;;;5052463;28;20596;-73
2023/08/30 00:05:12;;;;;;;18.33;15.10;;;15.50;99.90;;;;;;5071688;28;20683;-73
2023/08/30 00:07:38;;;;;;;18.23;16.33;;;15.50;99.90;;;;;;5057101;28;20185;-73
2023/08/30 00:10:04;;;;;;;18.00;16.20;;;15.50;99.90;;;;;;5051420;28;20572;-73
2023/08/30 00:12:30;;;;;;;16.83;15.13;;;15.60;99.90;;;;;;5051019;28;20575;-73
2023/08/30 00:14:56;;;;;;;19.63;15.90;;;15.70;99.90;;;;;;5051312;28;20222;-73
2023/08/30 00:17:22;;;;;;;17.83;13.90;;;15.70;99.90;;;;;;5051515;28;20206;-73
2023/08/30 00:19:48;;;;;;;15.30;13.80;;;15.70;99.90;;;;;;5051284;28;20187;-73
2023/08/30 00:22:14;;;;;;;15.67;14.17;;;15.70;99.90;;;;;;5068465;28;20523;-73
2023/08/30 00:24:40;;;;;;;19.03;14.33;;;15.80;99.90;;;;;;5071212;28;20209;-73
2023/08/30 00:27:05;;;;;;;14.43;12.93;;;15.80;99.90;;;;;;5071325;28;20639;-73
2023/08/30 00:29:31;;;;;;;18.90;13.93;;;15.90;99.90;;;;;;5062214;28;20265;-73
2023/08/30 00:31:57;;;;;;;15.20;13.53;;;15.90;99.90;;;;;;5050900;28;20175;-73
2023/08/30 00:34:22;;;;;;;14.70;13.20;;;16.00;99.90;;;;;;5051249;28;20691;-73
2023/08/30 00:36:48;;;;;;;14.30;12.83;;;16.00;99.90;;;;;;5051964;28;20170;-74
2023/08/30 00:39:14;;;;;;;13.70;12.40;;;16.00;99.90;;;;;;5051070;28;20210;-73
2023/08/30 00:41:40;;;;;;;15.60;12.07;;;16.00;99.90;;;;;;5050794;28;20549;-73
2023/08/30 00:44:06;;;;;;;15.33;12.43;;;16.00;99.90;;;;;;5068748;28;20194;-73
2023/08/30 00:46:33;;;;;;;14.30;11.43;;;15.90;99.90;;;;;;5069101;28;20186;-73
2023/08/30 00:49:00;;;;;;;14.17;12.87;;;15.90;99.90;;;;;;5054441;28;20236;-73
2023/08/30 00:51:26;;;;;;;13.50;12.20;;;16.00;99.90;;;;;;5050887;28;20159;-73
2023/08/30 00:53:53;;;;;;;13.93;11.50;;;16.00;99.90;;;;;;5051891;28;20182;-73
2023/08/30 00:56:19;;;;;;;12.47;11.00;;;16.00;99.90;;;;;;5051065;28;20640;-73
2023/08/30 00:58:45;;;;;;;11.70;9.93;;;16.00;99.90;;;;;;5058802;28;20536;-73
2023/08/30 01:01:11;;;;;;;13.20;10.97;;;16.00;99.90;;;;;;5070962;28;20250;-72
2023/08/30 01:03:37;;;;;;;13.60;11.37;;;16.10;99.90;;;;;;5070593;28;20540;-73
2023/08/30 01:06:03;;;;;;;12.77;11.47;;;16.10;99.90;;;;;;5070416;28;20581;-73
2023/08/30 01:08:29;;;;;;;13.47;11.43;;;16.10;99.90;;;;;;5060758;28;20304;-72
2023/08/30 01:11:07;;;;;;;10.90;9.80;;;16.00;99.90;;;;;;5072883;28;20171;-72
2023/08/30 01:13:40;;;;;;;13.13;10.73;;;16.00;99.90;;;;;;5074462;28;20636;-72
2023/08/30 01:16:06;;;;;;;13.30;10.57;;;15.90;99.90;;;;;;5074634;28;20171;-72
2023/08/30 01:18:35;;;;;;;14.57;9.87;;;15.80;99.90;;;;;;5074498;28;20261;-73
2023/08/30 01:21:04;;;;;;;12.77;10.50;;;15.80;99.90;;;;;;5072529;28;20194;-72
2023/08/30 01:23:44;;;;;;;12.53;10.33;;;15.70;99.90;;;;;;5074190;28;20162;-72
2023/08/30 01:26:26;;;;;;;11.40;9.70;;;15.70;99.90;;;;;;5074488;28;20249;-72
2023/08/30 01:28:54;;;;;;;11.40;10.10;;;15.50;99.90;;;;;;5072790;28;20289;-72
2023/08/30 01:31:22;;;;;;;10.93;9.63;;;15.40;99.90;;;;;;5074120;28;20170;-72
2023/08/30 01:33:48;;;;;;;11.00;9.90;;;15.30;99.90;;;;;;5074061;28;20181;-72
2023/08/30 01:36:14;;;;;;;12.03;9.53;;;15.20;99.90;;;;;;5074266;28;20162;-71
2023/08/30 01:38:41;;;;;;;10.87;9.77;;;15.10;99.90;;;;;;5073949;28;20166;-71
2023/08/30 01:41:07;;;;;;;11.30;10.20;;;15.00;99.90;;;;;;5074003;28;20205;-72
2023/08/30 01:43:33;;;;;;;12.67;11.10;;;14.90;99.90;;;;;;5056222;28;20759;-72
2023/08/30 01:46:00;;;;;;;12.63;10.90;;;14.90;99.90;;;;;;5054111;28;20187;-72
2023/08/30 01:48:27;;;;;;;11.23;10.13;;;14.80;99.90;;;;;;5054114;28;20577;-72
2023/08/30 01:50:58;;;;;;;11.50;10.27;;;14.80;99.90;;;;;;5053842;28;20175;-72
2023/08/30 01:53:25;;;;;;;13.53;10.73;;;14.80;99.90;;;;;;5053687;28;20198;-72
2023/08/30 01:55:50;;;;;;;12.90;10.60;;;14.80;99.90;;;;;;5053880;28;20220;-72
2023/08/30 01:58:16;;;;;;;12.40;10.37;;;14.80;99.90;;;;;;5058779;28;20610;-72
2023/08/30 02:00:41;;;;;;;16.50;12.83;;;14.70;99.90;;;;;;5073635;28;20202;-72
2023/08/30 02:03:12;;;;;;;14.60;13.17;;;14.70;99.90;;;;;;5073571;28;20636;-73
2023/08/30 02:06:06;;;;;;;16.10;12.83;;;14.60;99.90;;;;;;5072329;28;20189;-72
2023/08/30 02:08:42;;;;;;;14.47;12.43;;;14.50;99.90;;;;;;5053481;28;20608;-73
2023/08/30 02:11:14;;;;;;;16.63;13.53;;;14.50;99.90;;;;;;5053609;28;20155;-73
2023/08/30 02:13:42;;;;;;;18.40;14.27;;;14.40;99.90;;;;;;5054529;28;20171;-72
2023/08/30 02:16:09;;;;;;;15.20;13.60;;;14.40;99.90;;;;;;5065848;28;20182;-72
2023/08/30 02:18:36;;;;;;;19.30;15.97;;;14.30;99.90;;;;;;5072733;28;20530;-73
2023/08/30 02:21:02;;;;;;;20.77;15.63;;;14.20;99.90;;;;;;5073494;28;20585;-72
2023/08/30 02:23:27;;;;;;;15.77;14.00;;;14.20;99.90;;;;;;5073238;28;20253;-72
2023/08/30 02:25:55;;;;;;;18.57;14.17;;;14.10;99.90;;;;;;5071963;28;20183;-72
2023/08/30 02:28:21;;;;;;;19.23;15.03;;;14.10;99.90;;;;;;5052153;28;20174;-72
2023/08/30 02:30:46;;;;;;;17.10;15.40;;;14.10;99.90;;;;;;5053227;28;20255;-72
2023/08/30 02:33:12;;;;;;;17.03;13.93;;;14.00;99.90;;;;;;5053102;28;20174;-72
2023/08/30 02:35:37;;;;;;;18.10;16.20;;;13.90;99.90;;;;;;5065654;28;20233;-72
2023/08/30 02:38:04;;;;;;;17.63;15.13;;;13.90;99.90;;;;;;5073297;28;20682;-72
2023/08/30 02:40:31;;;;;;;19.77;15.33;;;13.80;99.90;;;;;;5064137;28;20206;-71
2023/08/30 02:42:57;;;;;;;18.87;15.70;;;13.80;99.90;;;;;;5052175;28;20198;-72
2023/08/30 02:45:23;;;;;;;25.80;16.07;;;13.70;99.90;;;;;;5053043;28;20182;-72
2023/08/30 02:47:48;;;;;;;20.53;16.37;;;13.70;99.90;;;;;;5053037;28;20563;-71
2023/08/30 02:50:14;;;;;;;19.07;15.43;;;13.70;99.90;;;;;;5051680;28;20184;-71
2023/08/30 02:52:39;;;;;;;18.30;15.07;;;13.70;99.90;;;;;;5052360;28;20265;-71
2023/08/30 02:55:06;;;;;;;18.50;15.53;;;13.70;99.90;;;;;;5061123;28;20199;-72
2023/08/30 02:57:31;;;;;;;19.53;14.37;;;13.60;99.90;;;;;;5061216;28;20565;-72
2023/08/30 02:59:57;;;;;;;20.57;16.30;;;13.60;99.90;;;;;;5051500;28;20202;-72
2023/08/30 03:02:23;;;;;;;18.90;14.37;;;13.50;99.90;;;;;;5052520;28;20580;-72
2023/08/30 03:04:48;;;;;;;21.10;15.57;;;13.50;99.90;;;;;;5065464;28;20194;-73
2023/08/30 03:07:14;;;;;;;16.90;15.13;;;13.40;99.90;;;;;;5072603;28;20167;-73
2023/08/30 03:09:40;;;;;;;16.57;14.73;;;13.40;99.90;;;;;;5069134;28;20186;-73
2023/08/30 03:12:06;;;;;;;18.83;15.63;;;13.30;99.90;;;;;;5072100;28;20512;-73
2023/08/30 03:14:32;;;;;;;20.10;14.37;;;13.20;99.90;;;;;;5072315;28;20197;-73
2023/08/30 03:16:57;;;;;;;21.40;15.77;;;13.20;99.90;;;;;;5072199;28;20178;-72
2023/08/30 03:19:23;;;;;;;21.43;16.27;;;13.20;99.90;;;;;;5072323;28;20193;-72
2023/08/30 03:21:49;;;;;;;20.43;15.80;;;13.10;99.90;;;;;;5070774;28;20174;-73
2023/08/30 03:24:15;;;;;;;20.23;15.53;;;13.10;99.90;;;;;;5053893;28;20198;-72
2023/08/30 03:26:43;;;;;;;20.10;14.30;;;13.10;99.90;;;;;;5071916;28;20296;-72
2023/08/30 03:29:09;;;;;;;18.77;15.67;;;13.00;99.90;;;;;;5070934;28;20170;-72
2023/08/30 03:31:34;;;;;;;24.27;15.30;;;13.00;99.90;;;;;;5072117;28;20167;-72
2023/08/30 03:34:00;;;;;;;20.43;15.47;;;12.90;99.90;;;;;;5072005;28;20197;-72
2023/08/30 03:36:26;;;;;;;19.93;15.63;;;12.90;99.90;;;;;;5067453;28;20170;-73
2023/08/30 03:38:51;;;;;;;18.53;15.00;;;12.80;99.90;;;;;;5052046;28;20245;-72
2023/08/30 03:41:18;;;;;;;17.13;14.80;;;12.80;99.90;;;;;;5051676;28;20221;-72
2023/08/30 03:43:44;;;;;;;20.37;15.67;;;12.80;99.90;;;;;;5051517;28;20166;-72
2023/08/30 03:46:11;;;;;;;19.70;15.03;;;12.70;99.90;;;;;;5066513;28;20178;-72
2023/08/30 03:48:37;;;;;;;21.67;15.67;;;12.70;99.90;;;;;;5072006;28;20196;-72
2023/08/30 03:51:03;;;;;;;20.07;14.67;;;12.70;99.90;;;;;;5071304;28;20257;-72
2023/08/30 03:53:29;;;;;;;19.83;15.27;;;12.70;99.90;;;;;;5071705;28;20170;-73
2023/08/30 03:55:55;;;;;;;24.00;15.17;;;12.70;99.90;;;;;;5072466;28;20193;-72
2023/08/30 03:58:21;;;;;;;18.50;15.20;;;12.70;99.90;;;;;;5073369;28;20182;-72
2023/08/30 04:00:47;;;;;;;17.17;13.97;;;12.70;99.90;;;;;;5071769;28;20262;-72
2023/08/30 04:03:14;;;;;;;22.30;15.80;;;12.60;99.90;;;;;;5071144;28;20579;-73
2023/08/30 04:05:40;;;;;;;22.63;16.33;;;12.60;99.90;;;;;;5061633;28;20198;-74
2023/08/30 04:08:07;;;;;;;20.80;16.70;;;12.70;99.90;;;;;;5052887;28;20177;-74
2023/08/30 04:10:39;;;;;;;21.50;17.20;;;12.70;99.90;;;;;;5052556;28;20566;-73
2023/08/30 04:13:06;;;;;;;24.97;18.00;;;12.70;99.90;;;;;;5051283;28;20644;-72
2023/08/30 04:15:36;;;;;;;25.57;18.33;;;12.80;99.90;;;;;;5051728;28;20209;-72
2023/08/30 04:18:02;;;;;;;27.60;18.80;;;12.90;99.90;;;;;;5051727;28;20944;-72
2023/08/30 04:20:28;;;;;;;24.50;18.90;;;13.00;99.90;;;;;;5068071;28;20235;-72
2023/08/30 04:22:55;;;;;;;24.20;18.00;;;13.00;99.90;;;;;;5071344;28;20162;-72
2023/08/30 04:25:21;;;;;;;22.97;17.77;;;13.20;99.90;;;;;;5070303;28;20194;-72
2023/08/30 04:27:47;;;;;;;23.33;17.80;;;13.20;99.90;;;;;;5070187;28;20523;-74
2023/08/30 04:30:13;;;;;;;24.53;19.17;;;13.30;99.90;;;;;;5070088;28;20715;-73
2023/08/30 04:32:38;;;;;;;23.43;18.40;;;13.40;99.90;;;;;;5068685;28;20558;-72
2023/08/30 04:35:04;;;;;;;24.30;19.07;;;13.50;99.90;;;;;;5051397;28;20198;-71
2023/08/30 04:37:33;;;;;;;20.63;16.63;;;13.50;99.90;;;;;;5051534;28;20194;-71
2023/08/30 04:39:59;;;;;;;22.57;18.07;;;13.50;99.90;;;;;;5051975;28;20186;-71
2023/08/30 04:42:25;;;;;;;24.67;19.03;;;13.60;99.90;;;;;;5055439;28;20719;-71
2023/08/30 04:44:52;;;;;;;24.57;18.30;;;13.60;99.90;;;;;;5055012;28;20190;-72
2023/08/30 04:47:17;;;;;;;21.33;17.47;;;13.50;99.90;;;;;;5061257;28;20213;-71
2023/08/30 04:49:43;;;;;;;24.57;19.03;;;13.50;99.90;;;;;;5075230;28;20557;-71
2023/08/30 04:52:09;;;;;;;23.80;18.20;;;13.50;99.90;;;;;;5075039;28;20182;-71
2023/08/30 04:54:34;;;;;;;23.37;17.80;;;13.50;99.90;;;;;;5074991;28;20189;-72
2023/08/30 04:57:00;;;;;;;22.07;18.43;;;13.50;99.90;;;;;;5056407;28;20181;-72
2023/08/30 04:59:25;;;;;;;23.00;18.83;;;13.50;99.90;;;;;;5055044;28;20205;-73
2023/08/30 05:01:51;;;;;;;23.30;17.73;;;13.50;99.90;;;;;;5063636;28;20178;-72
2023/08/30 05:04:17;;;;;;;23.30;18.93;;;13.50;99.90;;;;;;5074672;28;20269;-73
2023/08/30 05:06:43;;;;;;;24.33;19.00;;;13.50;99.90;;;;;;5074722;28;20240;-72
2023/08/30 05:09:09;;;;;;;22.50;18.80;;;13.40;99.90;;;;;;5074693;28;20253;-72
2023/08/30 05:11:34;;;;;;;24.20;20.83;;;13.40;99.90;;;;;;5074554;28;20202;-74
2023/08/30 05:14:00;;;;;;;24.13;18.57;;;13.50;99.90;;;;;;5073175;28;20200;-73
2023/08/30 05:16:26;;;;;;;25.53;18.93;;;13.50;99.90;;;;;;5063055;28;20182;-73
2023/08/30 05:18:51;;;;;;;23.17;18.23;;;13.50;99.90;;;;;;5074399;28;20178;-73
2023/08/30 05:21:17;;;;;;;25.53;19.93;;;13.50;99.90;;;;;;5074048;28;20209;-73
2023/08/30 05:23:44;;;;;;;25.20;19.23;;;13.50;99.90;;;;;;5074219;28;20189;-72
2023/08/30 05:26:12;;;;;;;21.20;18.03;;;13.50;99.90;;;;;;5074303;28;20194;-72
2023/08/30 05:28:38;;;;;;;22.87;18.10;;;13.50;99.90;;;;;;5074343;28;20627;-72
2023/08/30 05:31:04;;;;;;;25.47;18.37;;;13.50;99.90;;;;;;5057057;28;20183;-72
2023/08/30 05:33:30;;;;;;;22.30;18.43;;;13.50;99.90;;;;;;5053982;28;20167;-72
2023/08/30 05:35:55;;;;;;;22.30;17.30;;;13.50;99.90;;;;;;5054024;28;20205;-72
2023/08/30 05:38:21;;;;;;;27.37;18.47;;;13.50;99.90;;;;;;5052818;28;20183;-72
2023/08/30 05:40:47;;;;;;;20.37;17.67;;;13.60;99.90;;;;;;5053020;28;20199;-72
2023/08/30 05:43:12;;;;;;;21.77;17.13;;;13.70;99.90;;;;;;5052564;28;20662;-72
2023/08/30 05:45:38;;;;;;;21.53;16.30;;;13.80;99.90;;;;;;5054274;28;20260;-72
2023/08/30 05:48:05;;;;;;;17.37;15.47;;;13.90;99.90;;;;;;5054011;28;20178;-72
2023/08/30 05:50:30;;;;;;;17.43;14.97;;;13.90;99.90;;;;;;5054202;28;20507;-72
2023/08/30 05:52:56;;;;;;;18.07;16.17;;;14.00;99.90;;;;;;5052316;28;20204;-72
2023/08/30 05:55:21;;;;;;;18.43;15.83;;;14.10;99.90;;;;;;5058306;28;20565;-72
2023/08/30 05:57:47;;;;;;;20.40;16.00;;;14.30;99.90;;;;;;5052450;28;20182;-72
2023/08/30 06:00:13;;;;;;;18.93;15.10;;;14.30;99.90;;;;;;5052384;28;20198;-72
2023/08/30 06:02:40;;;;;;;15.97;14.20;;;14.50;99.90;;;;;;5053288;28;20159;-73
2023/08/30 06:05:06;;;;;;;17.70;15.90;;;14.50;99.90;;;;;;5052115;28;20683;-73
2023/08/30 06:07:31;;;;;;;16.03;13.87;;;14.60;99.90;;;;;;5053605;28;20196;-72
2023/08/30 06:09:57;;;;;;;16.93;13.90;;;14.60;99.90;;;;;;5055592;28;20280;-72
2023/08/30 06:12:23;;;;;;;14.33;12.93;;;14.60;99.90;;;;;;5073413;28;20175;-72
2023/08/30 06:14:52;;;;;;;13.53;12.20;;;14.70;99.90;;;;;;5073420;28;20186;-72
2023/08/30 06:17:18;;;;;;;12.33;11.00;;;14.80;99.90;;;;;;5073824;28;20528;-72
2023/08/30 06:19:45;;;;;;;13.07;11.70;;;14.90;99.90;;;;;;5072145;28;20258;-72
2023/08/30 06:22:11;;;;;;;11.47;10.27;;;15.00;99.90;;;;;;5073311;28;20188;-72
2023/08/30 06:24:36;;;;;;;12.00;10.07;;;15.20;99.90;;;;;;5066199;28;20277;-73
2023/08/30 06:27:02;;;;;;;10.23;9.23;;;15.40;99.90;;;;;;5073170;28;20166;-71
2023/08/30 06:29:28;;;;;;;9.00;8.10;;;15.60;99.90;;;;;;5069007;28;20185;-71
2023/08/30 06:31:53;;;;;;;9.60;8.20;;;15.70;99.90;;;;;;5052812;28;20199;-72
2023/08/30 06:34:19;;;;;;;8.30;7.60;;;15.90;99.90;;;;;;5053228;28;20668;-72
2023/08/30 06:36:45;;;;;;;8.30;7.50;;;16.00;99.90;;;;;;5053010;28;20175;-72
2023/08/30 06:39:10;;;;;;;8.07;7.27;;;16.00;99.90;;;;;;5072529;28;20753;-72
2023/08/30 06:41:36;;;;;;;7.57;6.87;;;16.00;99.90;;;;;;5072878;28;20209;-72
2023/08/30 06:44:02;;;;;;;8.17;7.33;;;16.10;99.90;;;;;;5072745;28;20548;-71
2023/08/30 06:46:27;;;;;;;9.53;7.80;;;16.20;99.90;;;;;;5059800;28;20237;-72
2023/08/30 06:48:54;;;;;;;7.40;6.33;;;16.30;99.90;;;;;;5065921;28;20174;-72
2023/08/30 06:51:20;;;;;;;7.77;7.03;;;16.40;99.90;;;;;;5069564;28;20195;-72
2023/08/30 06:53:46;;;;;;;7.80;7.00;;;16.40;99.90;;;;;;5052705;28;20217;-72
2023/08/30 06:56:12;;;;;;;8.67;6.90;;;16.50;99.90;;;;;;5052764;28;20725;-72
2023/08/30 06:58:38;;;;;;;8.40;7.60;;;16.50;99.90;;;;;;5052712;28;20253;-73
2023/08/30 07:01:04;;;;;;;7.80;7.03;;;16.50;99.90;;;;;;5052467;28;20198;-72
2023/08/30 07:03:30;;;;;;;6.60;6.00;;;16.80;99.90;;;;;;5051929;28;20181;-71
2023/08/30 07:05:55;;;;;;;8.37;6.10;;;17.30;99.90;;;;;;5058848;28;20264;-72
2023/08/30 07:08:21;;;;;;;6.23;5.50;;;17.90;99.90;;;;;;5067927;28;20182;-72
2023/08/30 07:10:47;;;;;;;6.70;5.13;;;18.60;99.90;;;;;;5072036;28;20198;-72
2023/08/30 07:13:12;;;;;;;6.10;5.37;;;19.20;99.90;;;;;;5071836;28;20620;-72
2023/08/30 07:15:41;;;;;;;5.50;5.00;;;19.80;99.90;;;;;;5072269;28;20281;-71
2023/08/30 07:18:08;;;;;;;5.32;4.90;;;20.40;99.90;;;;;;5072439;28;20178;-73
2023/08/30 07:20:34;;;;;;;5.72;5.30;;;20.70;99.90;;;;;;5063742;28;20672;-73
2023/08/30 07:23:00;;;;;;;6.65;5.85;;;20.90;99.90;;;;;;5051884;28;20171;-73
2023/08/30 07:25:26;;;;;;;6.43;5.78;;;20.70;99.90;;;;;;5052455;28;20187;-73
2023/08/30 07:27:52;;;;;;;7.00;5.72;;;20.60;99.90;;;;;;5052244;28;20171;-72
2023/08/30 07:30:17;;;;;;;6.23;5.73;;;20.50;99.90;;;;;;5050911;28;20212;-72
2023/08/30 07:32:43;;;;;;;5.63;5.13;;;20.50;99.90;;;;;;5052010;28;20186;-72
2023/08/30 07:35:09;;;;;;;6.90;5.15;;;20.60;99.90;;;;;;5066393;28;20228;-73
2023/08/30 07:37:35;;;;;;;5.57;4.97;;;20.80;99.90;;;;;;5070811;28;20189;-73
2023/08/30 07:40:01;;;;;;;5.00;4.50;;;21.20;99.90;;;;;;5071795;28;20200;-73
2023/08/30 07:42:27;;;;;;;6.00;4.43;;;21.60;99.90;;;;;;5071572;28;20181;-72
2023/08/30 07:44:52;;;;;;;5.05;4.47;;;22.10;99.90;;;;;;5071771;28;20247;-72
2023/08/30 07:47:18;;;;;;;5.13;4.68;;;22.60;99.90;;;;;;5057163;28;20702;-72
2023/08/30 07:49:44;;;;;;;5.68;4.32;;;23.10;99.90;;;;;;5054067;28;20193;-72
2023/08/30 07:52:10;;;;;;;6.03;5.40;;;23.50;99.90;;;;;;5061223;28;20218;-73
2023/08/30 07:54:37;;;;;;;6.38;5.88;;;23.60;99.90;;;;;;5051222;28;20203;-72
2023/08/30 07:57:03;;;;;;;4.82;4.43;;;23.60;99.90;;;;;;5054807;28;20664;-72
2023/08/30 07:59:29;;;;;;;5.50;5.10;;;23.30;99.90;;;;;;5071665;28;20252;-73
2023/08/30 08:01:55;;;;;;;5.05;4.55;;;23.20;99.90;;;;;;5062002;28;20175;-72
2023/08/30 08:04:21;;;;;;;4.47;4.07;;;23.30;99.90;;;;;;5051459;28;20195;-72
2023/08/30 08:06:47;;;;;;;4.53;4.00;;;23.30;99.90;;;;;;5051448;28;20167;-73
2023/08/30 08:09:12;;;;;;;6.32;3.90;;;23.20;99.90;;;;;;5051423;28;20174;-73
2023/08/30 08:11:43;;;;;;;4.68;4.20;;;23.00;99.90;;;;;;5051065;28;20170;-72
2023/08/30 08:14:12;;;;;;;5.60;4.80;;;22.80;99.90;;;;;;5060224;28;20678;-72
2023/08/30 08:16:38;;;;;;;5.53;4.82;;;22.70;99.90;;;;;;5070734;28;20551;-72
2023/08/30 08:19:03;;;;;;;5.65;5.05;;;22.60;99.90;;;;;;5070805;28;20170;-73
2023/08/30 08:21:29;;;;;;;6.70;5.13;;;22.40;99.90;;;;;;5071026;28;20589;-72
2023/08/30 08:23:55;;;;;;;5.43;4.25;;;22.10;99.90;;;;;;5069625;28;20174;-73
2023/08/30 08:26:20;;;;;;;5.30;4.90;;;21.80;99.90;;;;;;5068634;28;20288;-71
2023/08/30 08:28:46;;;;;;;6.95;6.25;;;21.60;99.90;;;;;;5071166;28;20174;-73
2023/08/30 08:31:12;;;;;;;7.03;6.35;;;21.30;99.90;;;;;;5067335;28;20648;-73
2023/08/30 08:33:37;;;;;;;7.43;6.93;;;21.20;99.90;;;;;;5072181;28;20239;-74
2023/08/30 08:36:03;;;;;;;6.03;5.53;;;21.20;99.90;;;;;;5059077;28;20216;-73
2023/08/30 08:38:28;;;;;;;5.18;4.28;;;21.50;99.90;;;;;;5060205;28;20186;-72
2023/08/30 08:41:02;;;;;;;5.95;5.35;;;21.70;99.90;;;;;;5067003;28;20282;-72
2023/08/30 08:43:29;;;;;;;6.05;5.65;;;21.90;99.90;;;;;;5062932;28;20181;-72
2023/08/30 08:45:59;;;;;;;4.22;3.83;;;22.20;99.90;;;;;;5055540;28;20191;-72
2023/08/30 08:48:28;;;;;;;5.00;4.43;;;22.60;99.90;;;;;;5068323;28;20181;-73
2023/08/30 08:50:54;;;;;;;16.80;15.63;;;23.40;99.90;;;;;;5054823;28;20179;-72
2023/08/30 08:53:20;;;;;;;12.45;11.55;;;24.00;99.90;;;;;;5050173;28;20175;-73
2023/08/30 08:55:47;;;;;;;10.52;9.88;;;24.30;99.90;;;;;;5050483;28;20191;-73
2023/08/30 08:58:14;;;;;;;12.55;11.68;;;24.20;99.90;;;;;;5051798;28;20563;-73
2023/08/30 09:00:44;;;;;;;4.50;4.10;;;23.80;99.90;;;;;;5050675;28;20277;-71
2023/08/30 09:03:10;;;;;;;5.93;3.50;;;23.30;99.90;;;;;;5050408;28;20201;-71
2023/08/30 09:05:37;;;;;;;3.90;3.50;;;22.60;99.90;;;;;;5067216;28;20244;-70
2023/08/30 09:08:04;;;;;;;3.90;3.50;;;22.20;99.90;;;;;;5070388;28;20198;-69
2023/08/30 09:10:34;;;;;;;6.65;6.25;;;21.70;99.90;;;;;;5070615;28;20175;-70
2023/08/30 09:13:00;;;;;;;5.50;5.03;;;21.40;99.90;;;;;;5068017;28;20550;-72
2023/08/30 09:15:32;;;;;;;5.28;4.57;;;21.30;99.90;;;;;;5070568;28;20224;-72
2023/08/30 09:17:58;;;;;;;5.10;3.63;;;21.30;99.90;;;;;;5070462;28;20189;-71
2023/08/30 09:20:24;;;;;;;4.53;3.40;;;21.30;99.90;;;;;;5070533;28;20206;-71
2023/08/30 09:22:50;;;;;;;7.63;4.32;;;21.20;99.90;;;;;;5068436;28;20600;-70
2023/08/30 09:25:26;;;;;;;4.45;4.05;;;21.10;99.90;;;;;;5070249;28;20187;-70
2023/08/30 09:28:01;;;;;;;6.03;5.53;;;21.10;99.90;;;;;;5073370;28;20166;-71
2023/08/30 09:30:27;;;;;;;6.10;5.70;;;21.00;99.90;;;;;;5072433;28;20264;-72
2023/08/30 09:32:53;;;;;;;6.85;6.25;;;21.00;99.90;;;;;;5073424;28;20636;-71
2023/08/30 09:35:19;;;;;;;9.68;8.98;;;21.00;99.90;;;;;;5073859;28;20205;-71
2023/08/30 09:37:45;;;;;;;9.38;8.63;;;21.00;99.90;;;;;;5064026;28;20178;-71
2023/08/30 09:40:11;;;;;;;11.90;11.07;;;20.90;99.90;;;;;;5053796;28;20207;-72
2023/08/30 09:42:43;;;;;;;12.73;12.07;;;20.80;99.90;;;;;;5053338;28;20549;-72
2023/08/30 09:45:37;;;;;;;5.45;5.03;;;20.60;99.90;;;;;;5066542;28;20671;-71
2023/08/30 09:48:04;;;;;;;7.03;3.60;;;20.40;99.90;;;;;;5039845;28;20199;-72
2023/08/30 09:50:34;;;;;;;4.70;4.30;;;20.20;99.90;;;;;;5053434;28;20201;-73
2023/08/30 09:53:06;;;;;;;4.27;3.93;;;20.00;99.90;;;;;;5053304;28;20182;-73
2023/08/30 09:55:33;;;;;;;6.20;3.90;;;19.90;99.90;;;;;;5062650;28;20202;-73
2023/08/30 09:58:00;;;;;;;5.17;4.57;;;19.80;99.90;;;;;;5071801;28;20212;-73
2023/08/30 10:00:26;;;;;;;5.10;4.60;;;19.70;99.90;;;;;;5073308;28;20223;-74
2023/08/30 10:02:51;;;;;;;5.63;4.40;;;19.60;99.90;;;;;;5054046;28;20236;-71
2023/08/30 10:05:18;;;;;;;4.70;4.30;;;19.60;99.90;;;;;;5054805;28;20206;-72
2023/08/30 10:07:45;;;;;;;7.10;4.63;;;19.50;99.90;;;;;;5073270;28;20166;-73
2023/08/30 10:10:11;;;;;;;4.77;4.20;;;19.60;99.90;;;;;;5073335;28;20257;-73
2023/08/30 10:12:38;;;;;;;4.97;3.80;;;19.50;99.90;;;;;;5072758;28;20178;-73
2023/08/30 10:15:05;;;;;;;3.93;3.60;;;19.70;99.90;;;;;;5069661;28;20194;-73
2023/08/30 10:17:33;;;;;;;4.50;3.60;;;19.70;99.90;;;;;;5072147;28;20248;-73
2023/08/30 10:20:04;;;;;;;3.93;3.53;;;19.70;99.90;;;;;;5072785;28;20190;-73
2023/08/30 10:22:32;;;;;;;5.73;3.53;;;19.70;99.90;;;;;;5072103;28;20166;-72
2023/08/30 10:25:11;;;;;;;4.47;3.37;;;19.70;99.90;;;;;;5072683;28;20190;-73
2023/08/30 10:27:41;;;;;;;4.13;3.73;;;19.80;99.90;;;;;;5072458;28;20166;-73
2023/08/30 10:30:10;;;;;;;7.53;3.70;;;19.80;99.90;;;;;;5059864;28;20222;-74
2023/08/30 10:32:40;;;;;;;4.77;4.13;;;19.80;99.90;;;;;;5052399;28;20175;-73
2023/08/30 10:35:06;;;;;;;4.33;3.33;;;19.80;99.90;;;;;;5051985;28;20190;-73
2023/08/30 10:37:32;;;;;;;4.80;3.70;;;19.80;99.90;;;;;;5052021;28;20186;-73
2023/08/30 10:40:05;;;;;;;5.70;4.03;;;19.70;99.90;;;;;;5052189;28;20194;-74
2023/08/30 10:42:32;;;;;;;4.07;3.40;;;19.60;99.90;;;;;;5050973;28;20228;-73
2023/08/30 10:45:04;;;;;;;3.63;3.30;;;19.50;99.90;;;;;;5065660;28;20206;-71
2023/08/30 10:47:31;;;;;;;3.80;3.50;;;19.20;99.90;;;;;;5070252;28;20166;-74
2023/08/30 10:50:04;;;;;;;4.20;3.90;;;18.70;99.90;;;;;;5052550;28;20167;-72
2023/08/30 10:52:30;;;;;;;5.10;3.47;;;18.10;99.90;;;;;;5052456;28;20201;-73
2023/08/30 10:55:10;;;;;;;4.53;4.13;;;17.60;99.90;;;;;;5052095;28;20284;-71
2023/08/30 10:57:37;;;;;;;5.40;4.60;;;17.00;99.90;;;;;;5052423;28;20588;-71
2023/08/30 11:00:33;;;;;;;5.20;4.70;;;16.70;99.90;;;;;;5052118;28;20209;-72
2023/08/30 11:02:59;;;;;;;5.07;4.67;;;16.40;99.90;;;;;;5056118;28;20198;-74
2023/08/30 11:05:27;;;;;;;6.50;4.40;;;16.00;99.90;;;;;;5071957;28;20194;-74
2023/08/30 11:07:54;;;;;;;5.60;4.33;;;15.90;99.90;;;;;;5072025;28;20287;-73
2023/08/30 11:10:20;;;;;;;5.90;5.07;;;15.80;99.90;;;;;;5070189;28;20178;-73
2023/08/30 11:12:49;;;;;;;8.03;4.70;;;15.80;99.90;;;;;;5070486;28;20189;-73
2023/08/30 11:15:15;;;;;;;5.63;5.07;;;15.80;99.90;;;;;;5070550;28;20624;-74
2023/08/30 11:17:42;;;;;;;5.70;5.20;;;15.90;99.90;;;;;;5064248;28;20270;-74
2023/08/30 11:20:09;;;;;;;6.97;4.80;;;15.90;99.90;;;;;;5052089;28;20265;-73
2023/08/30 11:22:46;;;;;;;7.07;5.93;;;15.90;99.90;;;;;;5050222;28;20178;-73
2023/08/30 11:25:14;;;;;;;6.23;5.63;;;16.00;99.90;;;;;;5051600;28;20205;-73
2023/08/30 11:27:40;;;;;;;6.00;5.40;;;16.00;99.90;;;;;;5050794;28;20233;-74
2023/08/30 11:30:08;;;;;;;6.27;5.67;;;16.10;99.90;;;;;;5052576;28;20593;-72
2023/08/30 11:32:42;;;;;;;8.50;5.83;;;16.10;99.90;;;;;;5069979;28;20180;-74
2023/08/30 11:35:08;;;;;;;6.57;5.70;;;15.90;99.90;;;;;;5070900;28;20196;-74
2023/08/30 11:37:34;;;;;;;6.83;6.13;;;15.80;99.90;;;;;;5070583;28;20565;-75
2023/08/30 11:40:02;;;;;;;8.60;6.17;;;15.80;99.90;;;;;;5056102;28;20297;-74
2023/08/30 11:42:29;;;;;;;7.87;5.73;;;15.90;99.90;;;;;;5051170;28;20613;-75
2023/08/30 11:44:55;;;;;;;6.37;5.77;;;15.90;99.90;;;;;;5051138;28;20194;-74
2023/08/30 11:47:25;;;;;;;7.10;5.80;;;16.00;99.90;;;;;;5051585;28;20891;-74
2023/08/30 11:49:57;;;;;;;5.77;5.17;;;16.00;99.90;;;;;;5050410;28;20171;-75
2023/08/30 11:52:24;;;;;;;6.47;5.87;;;16.00;99.90;;;;;;5051197;28;20182;-76
2023/08/30 11:54:51;;;;;;;6.20;5.70;;;16.00;99.90;;;;;;5064216;28;20254;-75
2023/08/30 11:57:17;;;;;;;8.50;6.13;;;16.00;99.90;;;;;;5071273;28;20576;-75
2023/08/30 11:59:42;;;;;;;6.40;5.90;;;16.00;99.90;;;;;;5070763;28;20299;-75
2023/08/30 12:02:09;;;;;;;7.23;6.43;;;16.00;99.90;;;;;;5070905;28;20174;-75
2023/08/30 12:04:45;;;;;;;6.53;5.93;;;16.10;99.90;;;;;;5071261;28;20208;-74
2023/08/30 12:07:22;;;;;;;6.43;5.93;;;16.10;99.90;;;;;;5063392;28;20276;-73
2023/08/30 12:09:48;;;;;;;6.10;5.50;;;16.00;99.90;;;;;;5064903;28;20269;-74
2023/08/30 12:12:13;;;;;;;6.17;5.57;;;16.00;99.90;;;;;;5053376;28;20321;-75
2023/08/30 12:14:39;;;;;;;6.20;5.70;;;16.00;99.90;;;;;;5053761;28;20660;-74
2023/08/30 12:17:05;;;;;;;6.40;5.70;;;16.10;99.90;;;;;;5069905;28;20280;-76
2023/08/30 12:19:32;;;;;;;6.40;5.83;;;16.30;99.90;;;;;;5060496;28;20174;-75
2023/08/30 12:22:04;;;;;;;6.30;5.80;;;16.50;99.90;;;;;;5050600;28;20535;-75
2023/08/30 12:24:46;;;;;;;6.37;5.40;;;16.70;99.90;;;;;;5051055;28;20248;-75
2023/08/30 12:27:13;;;;;;;7.13;4.83;;;16.80;99.90;;;;;;5050495;28;20175;-74
2023/08/30 12:29:39;;;;;;;4.60;4.20;;;16.70;99.90;;;;;;5050898;28;20259;-75
2023/08/30 12:32:06;;;;;;;5.83;4.83;;;16.50;99.90;;;;;;5049681;28;20258;-74
2023/08/30 12:34:32;;;;;;;4.70;4.40;;;16.30;99.90;;;;;;5053319;28;20206;-74